createdAt,value
2022-10-17T00:00:15.950Z,14.70
2022-10-17T00:03:19.582Z,14.70
2022-10-17T00:06:23.237Z,14.70
2022-10-17T00:09:26.932Z,14.60
2022-10-17T00:12:30.537Z,14.60
2022-10-17T00:15:36.089Z,14.60
2022-10-17T00:18:39.790Z,14.60
2022-10-17T00:21:43.397Z,14.60
2022-10-17T00:24:47.005Z,14.60
2022-10-17T00:27:50.601Z,14.60
2022-10-17T00:30:59.739Z,14.50
2022-10-17T00:34:03.475Z,14.60
2022-10-17T00:37:07.073Z,14.50
2022-10-17T00:40:12.162Z,14.50
2022-10-17T00:43:18.874Z,14.50
2022-10-17T00:46:26.165Z,14.50
2022-10-17T00:49:34.029Z,14.50
2022-10-17T00:52:38.142Z,14.50
2022-10-17T00:55:49.703Z,14.40
2022-10-17T00:58:53.634Z,14.40
2022-10-17T01:02:02.080Z,14.40
2022-10-17T01:05:06.550Z,14.40
2022-10-17T01:08:12.557Z,14.40
2022-10-17T01:11:29.966Z,14.40
2022-10-17T01:14:42.898Z,14.40
2022-10-17T01:18:02.290Z,14.40
2022-10-17T01:21:31.652Z,14.30
2022-10-17T01:24:57.274Z,14.30
2022-10-17T01:28:18.887Z,14.30
2022-10-17T01:31:30.147Z,14.30
2022-10-17T01:34:37.434Z,14.30
2022-10-17T01:37:48.231Z,14.30
2022-10-17T01:40:57.695Z,14.30
2022-10-17T01:44:06.434Z,14.30
2022-10-17T01:47:17.054Z,14.30
2022-10-17T01:50:24.813Z,14.30
2022-10-17T01:53:34.607Z,14.30
2022-10-17T01:56:41.504Z,14.30
2022-10-17T01:59:50.030Z,14.30
2022-10-17T02:03:00.133Z,14.30
2022-10-17T02:06:04.217Z,14.30
2022-10-17T02:09:22.931Z,14.30
2022-10-17T02:12:44.074Z,14.30
2022-10-17T02:16:08.426Z,14.30
2022-10-17T02:19:38.230Z,14.30
2022-10-17T02:22:48.954Z,14.30
2022-10-17T02:25:59.411Z,14.30
2022-10-17T02:29:08.580Z,14.30
2022-10-17T02:32:16.665Z,14.30
2022-10-17T02:35:23.781Z,14.30
2022-10-17T02:38:29.133Z,14.30
2022-10-17T02:41:34.355Z,14.30
2022-10-17T02:44:41.681Z,14.30
2022-10-17T02:47:52.710Z,14.30
2022-10-17T02:51:05.158Z,14.30
2022-10-17T02:54:14.669Z,14.30
2022-10-17T02:57:23.542Z,14.30
2022-10-17T03:00:28.183Z,14.30
2022-10-17T03:03:34.338Z,14.30
2022-10-17T03:06:41.333Z,14.30
2022-10-17T03:09:45.046Z,14.30
2022-10-17T03:12:48.716Z,14.30
2022-10-17T03:15:52.545Z,14.30
2022-10-17T03:18:56.418Z,14.30
2022-10-17T03:22:01.949Z,14.30
2022-10-17T03:25:07.882Z,14.30
2022-10-17T03:28:13.579Z,14.30
2022-10-17T03:31:18.753Z,14.30
2022-10-17T03:34:23.749Z,14.30
2022-10-17T03:37:29.810Z,14.30
2022-10-17T03:40:33.774Z,14.30
2022-10-17T03:43:37.626Z,14.30
2022-10-17T03:46:41.314Z,14.40
2022-10-17T03:49:45.084Z,14.30
2022-10-17T03:52:51.204Z,14.40
2022-10-17T03:55:55.262Z,14.40
2022-10-17T03:58:59.990Z,14.40
2022-10-17T04:02:04.851Z,14.40
2022-10-17T04:05:09.751Z,14.30
2022-10-17T04:08:15.274Z,14.40
2022-10-17T04:11:47.938Z,14.40
2022-10-17T04:14:51.742Z,14.40
2022-10-17T04:17:55.554Z,14.40
2022-10-17T04:20:59.489Z,14.40
2022-10-17T04:24:05.275Z,14.40
2022-10-17T04:27:35.364Z,14.40
2022-10-17T04:30:42.269Z,14.40
2022-10-17T04:33:50.706Z,14.40
2022-10-17T04:36:54.342Z,14.40
2022-10-17T04:40:00.418Z,14.40
2022-10-17T04:43:07.532Z,14.50
2022-10-17T04:46:15.863Z,14.50
2022-10-17T04:49:21.268Z,14.50
2022-10-17T04:52:29.476Z,14.50
2022-10-17T04:55:39.817Z,14.60
2022-10-17T04:58:45.313Z,14.60
2022-10-17T05:01:50.551Z,14.60
2022-10-17T05:04:55.195Z,14.60
2022-10-17T05:07:58.978Z,14.60
2022-10-17T05:11:18.283Z,14.70
2022-10-17T05:14:21.921Z,14.70
2022-10-17T05:17:25.763Z,14.70
2022-10-17T05:20:29.487Z,14.70
2022-10-17T05:23:33.269Z,14.70
2022-10-17T05:26:38.930Z,14.70
2022-10-17T05:29:42.598Z,14.80
2022-10-17T05:32:55.782Z,14.80
2022-10-17T05:35:59.927Z,14.80
2022-10-17T05:39:03.593Z,14.80
2022-10-17T05:42:11.166Z,14.80
2022-10-17T05:45:15.237Z,14.90
2022-10-17T05:48:19.193Z,14.90
2022-10-17T05:51:22.849Z,14.90
2022-10-17T05:54:27.028Z,15.00
2022-10-17T05:57:32.655Z,15.00
2022-10-17T06:00:37.410Z,15.00
2022-10-17T06:03:41.895Z,15.00
2022-10-17T06:06:46.748Z,15.00
2022-10-17T06:09:50.562Z,15.10
2022-10-17T06:12:56.148Z,15.10
2022-10-17T06:15:59.807Z,15.10
2022-10-17T06:19:03.472Z,15.10
2022-10-17T06:22:07.792Z,15.20
2022-10-17T06:25:12.713Z,15.20
2022-10-17T06:28:18.123Z,15.20
2022-10-17T06:31:22.936Z,15.30
2022-10-17T06:34:26.613Z,15.30
2022-10-17T06:37:36.295Z,15.30
2022-10-17T06:40:43.333Z,15.40
2022-10-17T06:43:49.249Z,15.40
2022-10-17T06:47:22.817Z,15.50
2022-10-17T06:50:28.670Z,15.50
2022-10-17T06:53:55.249Z,15.60
2022-10-17T06:57:06.077Z,15.60
2022-10-17T07:00:34.583Z,15.70
2022-10-17T07:03:39.617Z,15.80
2022-10-17T07:06:43.286Z,15.80
2022-10-17T07:09:53.347Z,15.80
2022-10-17T07:12:57.593Z,15.90
2022-10-17T07:16:03.195Z,16.00
2022-10-17T07:19:08.879Z,16.00
2022-10-17T07:22:15.066Z,16.10
2022-10-17T07:25:24.279Z,16.10
2022-10-17T07:28:36.525Z,16.20
2022-10-17T07:31:51.328Z,16.20
2022-10-17T07:34:54.945Z,16.30
2022-10-17T07:37:58.840Z,16.30
2022-10-17T07:41:06.559Z,16.40
2022-10-17T07:44:10.945Z,16.50
2022-10-17T07:47:23.509Z,16.60
2022-10-17T07:50:28.711Z,16.60
2022-10-17T07:53:32.398Z,16.70
2022-10-17T07:56:36.034Z,16.80
2022-10-17T07:59:40.084Z,16.90
2022-10-17T08:02:45.601Z,17.00
2022-10-17T08:05:49.215Z,17.00
2022-10-17T08:08:52.826Z,17.10
2022-10-17T08:11:56.550Z,17.20
2022-10-17T08:15:00.190Z,17.30
2022-10-17T08:18:05.812Z,17.40
2022-10-17T08:21:10.734Z,17.50
2022-10-17T08:24:14.355Z,17.50
2022-10-17T08:27:23.295Z,17.70
2022-10-17T08:30:29.946Z,17.80
2022-10-17T08:33:35.994Z,17.90
2022-10-17T08:36:39.630Z,17.90
2022-10-17T08:39:43.962Z,18.00
2022-10-17T08:43:08.742Z,18.10
2022-10-17T08:46:13.173Z,18.10
2022-10-17T08:49:33.269Z,18.30
2022-10-17T08:52:42.132Z,18.30
2022-10-17T08:55:48.503Z,18.40
2022-10-17T08:58:52.247Z,18.40
2022-10-17T09:02:04.189Z,18.40
2022-10-17T09:05:32.342Z,18.40
2022-10-17T09:08:45.666Z,18.50
2022-10-17T09:12:04.000Z,18.50
2022-10-17T09:15:39.932Z,18.50
2022-10-17T09:18:47.239Z,18.50
2022-10-17T09:21:55.123Z,18.50
2022-10-17T09:25:02.702Z,18.60
2022-10-17T09:28:17.547Z,18.60
2022-10-17T09:31:24.284Z,18.60
2022-10-17T09:34:29.885Z,18.60
2022-10-17T09:37:35.513Z,18.60
2022-10-17T09:40:39.199Z,18.60
2022-10-17T09:43:42.865Z,18.70
2022-10-17T09:46:58.271Z,18.70
2022-10-17T09:50:03.469Z,18.70
2022-10-17T09:53:15.112Z,18.70
2022-10-17T09:56:20.932Z,18.70
2022-10-17T09:59:33.402Z,18.60
2022-10-17T10:02:40.215Z,18.60
2022-10-17T10:05:59.079Z,18.60
2022-10-17T10:09:06.691Z,18.60
2022-10-17T10:12:21.154Z,18.60
2022-10-17T10:15:40.626Z,18.60
2022-10-17T10:18:46.446Z,18.60
2022-10-17T10:21:58.212Z,18.60
2022-10-17T10:25:18.372Z,18.60
2022-10-17T10:28:24.812Z,18.60
2022-10-17T10:31:32.660Z,18.60
2022-10-17T10:34:38.610Z,18.50
2022-10-17T10:37:45.113Z,18.50
2022-10-17T10:40:53.422Z,18.50
2022-10-17T10:43:57.673Z,18.50
2022-10-17T10:47:16.936Z,18.40
2022-10-17T10:50:28.119Z,18.40
2022-10-17T10:53:39.616Z,18.40
2022-10-17T10:56:51.122Z,18.40
2022-10-17T11:00:01.702Z,18.40
2022-10-17T11:03:12.943Z,18.40
2022-10-17T11:06:23.873Z,18.40
2022-10-17T11:09:37.665Z,18.40
2022-10-17T11:12:46.541Z,18.30
2022-10-17T11:15:59.023Z,18.30
2022-10-17T11:19:13.124Z,18.30
2022-10-17T11:22:18.173Z,18.30
2022-10-17T11:25:33.401Z,18.30
2022-10-17T11:28:39.022Z,18.30
2022-10-17T11:31:47.443Z,18.30
2022-10-17T11:34:54.703Z,18.20
2022-10-17T11:38:08.871Z,18.20
2022-10-17T11:41:15.214Z,18.20
2022-10-17T11:44:26.762Z,18.20
2022-10-17T11:47:39.265Z,18.20
2022-10-17T11:54:15.554Z,18.20
2022-10-17T11:57:36.902Z,18.20
2022-10-17T12:00:53.871Z,18.20
2022-10-17T12:04:19.652Z,18.20
2022-10-17T12:07:31.661Z,18.20
2022-10-17T12:10:44.344Z,18.20
2022-10-17T12:13:54.026Z,18.20
2022-10-17T12:16:59.562Z,18.30
2022-10-17T12:20:25.654Z,18.20
2022-10-17T12:23:30.257Z,18.20
2022-10-17T12:26:34.486Z,18.30
2022-10-17T12:29:38.310Z,18.30
2022-10-17T12:33:06.679Z,18.30
2022-10-17T12:36:43.654Z,18.30
2022-10-17T12:39:47.268Z,18.30
2022-10-17T12:42:51.862Z,18.30
2022-10-17T12:45:56.337Z,18.30
2022-10-17T12:49:23.987Z,18.40
2022-10-17T12:52:49.352Z,18.40
2022-10-17T12:56:01.194Z,18.40
2022-10-17T12:59:11.511Z,18.40
2022-10-17T13:02:20.610Z,18.40
2022-10-17T13:05:29.919Z,18.40
2022-10-17T13:08:37.359Z,18.40
2022-10-17T13:11:44.538Z,18.40
2022-10-17T13:14:49.789Z,18.50
2022-10-17T13:18:00.586Z,18.50
2022-10-17T13:21:07.198Z,18.50
2022-10-17T13:24:22.651Z,18.50
2022-10-17T13:27:31.882Z,18.50
2022-10-17T13:30:37.488Z,18.50
2022-10-17T13:33:42.590Z,18.50
2022-10-17T13:36:49.119Z,18.50
2022-10-17T13:39:55.539Z,18.50
2022-10-17T13:43:03.566Z,18.50
2022-10-17T13:46:32.605Z,18.50
2022-10-17T13:49:35.357Z,18.50
2022-10-17T13:52:39.068Z,18.50
2022-10-17T13:56:09.438Z,18.50
2022-10-17T13:59:24.742Z,18.50
2022-10-17T14:02:30.250Z,18.60
2022-10-17T14:05:35.466Z,18.50
2022-10-17T14:08:40.579Z,18.50
2022-10-17T14:11:46.474Z,18.60
2022-10-17T14:15:11.295Z,18.60
2022-10-17T14:18:21.019Z,18.60
2022-10-17T14:21:43.703Z,18.60
2022-10-17T14:24:48.433Z,18.60
2022-10-17T14:28:01.696Z,18.60
2022-10-17T14:31:20.990Z,18.60
2022-10-17T14:34:32.567Z,18.60
2022-10-17T14:37:43.140Z,18.60
2022-10-17T14:40:51.815Z,18.60
2022-10-17T14:43:58.556Z,18.60
2022-10-17T14:47:30.798Z,18.60
2022-10-17T14:50:31.219Z,18.60
2022-10-17T14:53:35.149Z,18.60
2022-10-17T14:56:43.579Z,18.50
2022-10-17T14:59:55.707Z,18.60
2022-10-17T15:03:01.776Z,18.50
2022-10-17T15:06:18.971Z,18.50
2022-10-17T15:09:23.237Z,18.50
2022-10-17T15:12:27.776Z,18.50
2022-10-17T15:15:33.027Z,18.50
2022-10-17T15:18:38.553Z,18.50
2022-10-17T15:21:46.906Z,18.50
2022-10-17T15:24:51.196Z,18.50
2022-10-17T15:27:55.317Z,18.50
2022-10-17T15:30:58.959Z,18.50
2022-10-17T15:34:04.510Z,18.50
2022-10-17T15:37:15.769Z,18.50
2022-10-17T15:40:22.589Z,18.50
2022-10-17T15:43:28.618Z,18.50
2022-10-17T15:46:35.846Z,18.50
2022-10-17T15:49:41.397Z,18.50
2022-10-17T15:52:46.439Z,18.50
2022-10-17T15:55:50.520Z,18.50
2022-10-17T15:58:54.791Z,18.50
2022-10-17T16:01:58.564Z,18.50
2022-10-17T16:05:04.170Z,18.50
2022-10-17T16:08:07.782Z,18.50
2022-10-17T16:11:18.108Z,18.50
2022-10-17T16:14:21.879Z,18.40
2022-10-17T16:17:25.490Z,18.40
2022-10-17T16:20:31.417Z,18.40
2022-10-17T16:23:35.151Z,18.40
2022-10-17T16:26:38.837Z,18.40
2022-10-17T16:29:42.597Z,18.40
2022-10-17T16:32:46.369Z,18.40
2022-10-17T16:35:52.393Z,18.30
2022-10-17T16:38:56.135Z,18.30
2022-10-17T16:41:59.827Z,18.30
2022-10-17T16:45:03.577Z,18.30
2022-10-17T16:48:07.531Z,18.30
2022-10-17T16:51:13.373Z,18.20
2022-10-17T16:54:17.061Z,18.20
2022-10-17T16:57:20.693Z,18.20
2022-10-17T17:00:24.406Z,18.20
2022-10-17T17:03:28.112Z,18.10
2022-10-17T17:06:33.815Z,18.10
2022-10-17T17:09:37.446Z,18.10
2022-10-17T17:12:41.202Z,18.00
2022-10-17T17:19:12.639Z,17.90
2022-10-17T17:22:18.187Z,17.90
2022-10-17T17:25:21.843Z,17.90
2022-10-17T17:28:25.551Z,17.80
2022-10-17T17:31:31.124Z,17.80
2022-10-17T17:34:37.788Z,17.80
2022-10-17T17:37:43.374Z,17.70
2022-10-17T17:40:50.699Z,17.70
2022-10-17T17:43:55.517Z,17.70
2022-10-17T17:46:59.141Z,17.70
2022-10-17T17:50:03.018Z,17.60
2022-10-17T17:53:09.158Z,17.60
2022-10-17T17:56:15.742Z,17.60
2022-10-17T17:59:19.404Z,17.50
2022-10-17T18:02:22.982Z,17.50
2022-10-17T18:05:26.609Z,17.50
2022-10-17T18:08:32.205Z,17.50
2022-10-17T18:11:36.662Z,17.50
2022-10-17T18:14:40.394Z,17.40
2022-10-17T18:17:44.052Z,17.40
2022-10-17T18:20:47.642Z,17.40
2022-10-17T18:23:53.263Z,17.40
2022-10-17T18:26:59.207Z,17.30
2022-10-17T18:30:03.014Z,17.30
2022-10-17T18:33:06.608Z,17.30
2022-10-17T18:36:12.990Z,17.30
2022-10-17T18:39:18.538Z,17.30
2022-10-17T18:42:22.247Z,17.30
2022-10-17T18:45:25.859Z,17.30
2022-10-17T18:48:29.475Z,17.30
2022-10-17T18:51:33.087Z,17.20
2022-10-17T18:54:38.738Z,17.20
2022-10-17T18:57:42.366Z,17.20
2022-10-17T19:00:46.090Z,17.20
2022-10-17T19:03:51.214Z,17.20
2022-10-17T19:06:54.932Z,17.20
2022-10-17T19:10:00.489Z,17.20
2022-10-17T19:13:04.137Z,17.20
2022-10-17T19:16:09.005Z,17.20
2022-10-17T19:19:15.150Z,17.10
2022-10-17T19:22:18.773Z,17.10
2022-10-17T19:25:24.417Z,17.10
2022-10-17T19:28:28.081Z,17.10
2022-10-17T19:31:33.226Z,17.10
2022-10-17T19:34:37.231Z,17.10
2022-10-17T19:37:40.588Z,17.10
2022-10-17T19:40:46.120Z,17.10
2022-10-17T19:43:49.946Z,17.10
2022-10-17T19:46:53.836Z,17.00
2022-10-17T19:49:57.480Z,17.00
2022-10-17T19:53:01.093Z,17.00
2022-10-17T19:56:08.383Z,17.00
2022-10-17T19:59:14.058Z,17.00
2022-10-17T20:02:17.809Z,17.00
2022-10-17T20:05:23.710Z,17.00
2022-10-17T20:08:29.656Z,17.00
2022-10-17T20:11:35.221Z,17.00
2022-10-17T20:14:41.140Z,16.90
2022-10-17T20:17:44.929Z,17.00
2022-10-17T20:20:48.557Z,16.90
2022-10-17T20:23:52.258Z,16.90
2022-10-17T20:26:57.838Z,16.90
2022-10-17T20:30:01.926Z,16.90
2022-10-17T20:33:05.773Z,16.90
2022-10-17T20:36:10.874Z,16.90
2022-10-17T20:39:16.227Z,16.90
2022-10-17T20:42:22.526Z,16.90
2022-10-17T20:45:37.619Z,16.90
2022-10-17T20:48:53.131Z,16.80
2022-10-17T20:51:56.751Z,16.90
2022-10-17T20:55:00.379Z,16.80
2022-10-17T20:58:05.971Z,16.80
2022-10-17T21:01:11.263Z,16.80
2022-10-17T21:04:44.018Z,16.80
2022-10-17T21:07:39.028Z,16.80
2022-10-17T21:10:42.637Z,16.80
2022-10-17T21:13:49.485Z,16.80
2022-10-17T21:16:53.513Z,16.80
2022-10-17T21:19:57.186Z,16.80
2022-10-17T21:23:01.039Z,16.80
2022-10-17T21:26:06.590Z,16.80
2022-10-17T21:29:13.982Z,16.80
2022-10-17T21:32:31.915Z,16.80
2022-10-17T21:35:41.178Z,16.80
2022-10-17T21:38:45.713Z,16.80
2022-10-17T21:41:49.362Z,16.80
2022-10-17T21:44:54.920Z,16.80
2022-10-17T21:48:12.571Z,16.80
2022-10-17T21:51:18.531Z,16.80
2022-10-17T21:54:24.297Z,16.80
2022-10-17T21:57:28.952Z,16.80
2022-10-17T22:00:34.490Z,16.80
2022-10-17T22:03:42.715Z,16.80
2022-10-17T22:06:52.614Z,16.80
2022-10-17T22:09:56.210Z,16.70
2022-10-17T22:12:59.822Z,16.70
2022-10-17T22:16:07.862Z,16.70
2022-10-17T22:19:14.282Z,16.70
2022-10-17T22:22:17.932Z,16.70
2022-10-17T22:25:21.634Z,16.70
2022-10-17T22:28:26.198Z,16.70
2022-10-17T22:31:31.915Z,16.70
2022-10-17T22:34:35.570Z,16.70
2022-10-17T22:37:39.239Z,16.70
2022-10-17T22:40:45.230Z,16.70
2022-10-17T22:43:48.862Z,16.70
2022-10-17T22:46:54.366Z,16.70
2022-10-17T22:49:58.047Z,16.70
2022-10-17T22:53:02.298Z,16.70
2022-10-17T22:56:08.517Z,16.70
2022-10-17T22:59:12.134Z,16.70
2022-10-17T23:02:17.696Z,16.70
2022-10-17T23:05:21.282Z,16.70
2022-10-17T23:08:25.325Z,16.70
2022-10-17T23:11:29.012Z,16.80
2022-10-17T23:14:32.735Z,16.80
2022-10-17T23:17:38.230Z,16.80
2022-10-17T23:20:41.967Z,16.70
2022-10-17T23:23:45.601Z,16.80
2022-10-17T23:26:49.224Z,16.70
2022-10-17T23:29:52.837Z,16.80
2022-10-17T23:32:58.378Z,16.80
2022-10-17T23:36:05.561Z,16.80
2022-10-17T23:39:09.215Z,16.80
2022-10-17T23:42:12.837Z,16.80
2022-10-17T23:45:16.651Z,16.80
2022-10-17T23:48:22.259Z,16.80
2022-10-17T23:51:25.894Z,16.80
2022-10-17T23:54:29.577Z,16.80
2022-10-17T23:57:33.663Z,16.80
